Orbital elements of FENGYUN 1C DEB
| Launched | 9 May 1999 |
| Flight ended | – |
| Launch site | Taiyuan Space Center, PRC |
| Owner | People's Republic of China |
| NORAD ID | 30715 |
| Date fetched |
Epoch osculation |
Inc. [°] |
Ecc. | RA asc node [hr] |
Arg Peri. [°] |
Mean anom [°] |
Mean motion [rev/day] |
Abs. mag |
| Date fetched |
Epoch osculation |
Inc. [°] |
Ecc. | RA asc node [hr] |
Arg Peri. [°] |
Mean anom [°] |
Mean motion [rev/day] |
Abs. mag |
| 2026 May 09 17:57 | 2026 May 04 15:59:00 | 98.9618 | 0.00678 | 13.3078 | 123.1839 | 237.5863 | 14.15625 | – |
| 2026 May 08 17:57 | 2026 May 04 15:59:00 | 98.9618 | 0.00678 | 13.3078 | 123.1839 | 237.5863 | 14.15625 | – |
| 2026 May 07 17:58 | 2026 May 04 15:59:00 | 98.9618 | 0.00678 | 13.3078 | 123.1839 | 237.5863 | 14.15625 | – |
| 2026 May 06 17:57 | 2026 May 04 15:59:00 | 98.9618 | 0.00678 | 13.3078 | 123.1839 | 237.5863 | 14.15625 | – |
| 2026 May 05 17:57 | 2026 May 04 15:59:00 | 98.9618 | 0.00678 | 13.3078 | 123.1839 | 237.5863 | 14.15625 | – |
| 2026 May 04 17:57 | 2026 Apr 30 03:25:06 | 98.9623 | 0.00679 | 13.0045 | 135.6190 | 237.5863 | 14.15625 | – |
| 2026 May 03 17:57 | 2026 Apr 30 03:25:06 | 98.9623 | 0.00679 | 13.0045 | 135.6190 | 237.5863 | 14.15625 | – |
| 2026 May 02 17:57 | 2026 Apr 30 03:25:06 | 98.9623 | 0.00679 | 13.0045 | 135.6190 | 237.5863 | 14.15625 | – |
| 2026 May 01 17:56 | 2026 Apr 30 03:25:06 | 98.9623 | 0.00679 | 13.0045 | 135.6190 | 237.5863 | 14.15625 | – |
| 2026 Apr 30 17:56 | 2026 Apr 30 03:25:06 | 98.9623 | 0.00679 | 13.0045 | 135.6190 | 237.5863 | 14.15625 | – |
| 2026 Apr 29 17:57 | 2026 Apr 24 03:13:36 | 98.9622 | 0.00678 | 12.6018 | 152.0829 | 237.5863 | 14.15625 | – |
| 2026 Apr 28 17:56 | 2026 Apr 24 03:13:36 | 98.9622 | 0.00678 | 12.6018 | 152.0829 | 237.5863 | 14.15625 | – |
| 2026 Apr 27 17:58 | 2026 Apr 24 03:13:36 | 98.9622 | 0.00678 | 12.6018 | 152.0829 | 237.5863 | 14.15625 | – |
| 2026 Apr 26 17:58 | 2026 Apr 24 03:13:36 | 98.9622 | 0.00678 | 12.6018 | 152.0829 | 237.5863 | 14.15625 | – |
| 2026 Apr 25 17:58 | 2026 Apr 24 03:13:36 | 98.9622 | 0.00678 | 12.6018 | 152.0829 | 237.5863 | 14.15625 | – |
| 2026 Apr 24 17:59 | 2026 Apr 24 03:13:36 | 98.9622 | 0.00678 | 12.6018 | 152.0829 | 237.5863 | 14.15625 | – |
| 2026 Apr 23 17:57 | 2026 Apr 17 16:51:12 | 98.9624 | 0.00676 | 12.1706 | 169.7953 | 237.5863 | 14.15625 | – |
| 2026 Apr 22 17:57 | 2026 Apr 17 16:51:12 | 98.9624 | 0.00676 | 12.1706 | 169.7953 | 237.5863 | 14.15625 | – |
| 2026 Apr 21 17:57 | 2026 Apr 17 16:51:12 | 98.9624 | 0.00676 | 12.1706 | 169.7953 | 237.5863 | 14.15625 | – |
| 2026 Apr 20 17:57 | 2026 Apr 17 16:51:12 | 98.9624 | 0.00676 | 12.1706 | 169.7953 | 237.5863 | 14.15625 | – |
| 2026 Apr 19 17:58 | 2026 Apr 17 16:51:12 | 98.9624 | 0.00676 | 12.1706 | 169.7953 | 237.5863 | 14.15625 | – |
| 2026 Apr 18 17:56 | 2026 Apr 13 04:16:53 | 98.9625 | 0.00673 | 11.8674 | 182.2947 | 237.5863 | 14.15625 | – |
| 2026 Apr 16 17:57 | 2026 Apr 13 04:16:53 | 98.9625 | 0.00673 | 11.8674 | 182.2947 | 237.5863 | 14.15625 | – |
| 2026 Apr 14 17:57 | 2026 Apr 13 04:16:53 | 98.9625 | 0.00673 | 11.8674 | 182.2947 | 237.5863 | 14.15625 | – |
| 2026 Apr 13 17:57 | 2026 Apr 13 04:16:53 | 98.9625 | 0.00673 | 11.8674 | 182.2947 | 237.5863 | 14.15625 | – |
| 2026 Apr 12 17:57 | 2026 Apr 08 03:49:58 | 98.9624 | 0.00670 | 11.5310 | 196.2706 | 237.5863 | 14.15625 | – |